createdAt,value
2017-03-01T00:00:15.835Z,25.05
2017-03-01T00:01:30.272Z,25.03
2017-03-01T00:02:44.698Z,25.03
2017-03-01T00:03:59.120Z,25.02
2017-03-01T00:05:12.934Z,24.99
2017-03-01T00:06:27.166Z,25.03
2017-03-01T00:07:42.031Z,24.98
2017-03-01T00:08:56.923Z,24.95
2017-03-01T00:10:12.519Z,24.91
2017-03-01T00:11:28.029Z,24.93
2017-03-01T00:12:42.693Z,24.95
2017-03-01T00:13:57.393Z,24.93
2017-03-01T00:15:11.838Z,24.98
2017-03-01T00:16:26.237Z,24.88
2017-03-01T00:17:40.038Z,24.95
2017-03-01T00:18:54.690Z,24.93
2017-03-01T00:20:10.170Z,24.99
2017-03-01T00:21:25.379Z,25.05
2017-03-01T00:22:39.834Z,25.08
2017-03-01T00:23:54.269Z,25
2017-03-01T00:25:08.887Z,24.98
2017-03-01T00:26:23.336Z,24.98
2017-03-01T00:27:37.162Z,24.88
2017-03-01T00:28:52.828Z,24.9
2017-03-01T00:30:08.489Z,24.8
2017-03-01T00:31:23.483Z,24.8
2017-03-01T00:32:38.717Z,24.69
2017-03-01T00:33:54.464Z,24.65
2017-03-01T00:35:08.229Z,24.61
2017-03-01T00:36:21.996Z,24.68
2017-03-01T00:37:36.163Z,24.65
2017-03-01T00:38:51.724Z,24.58
2017-03-01T00:40:06.813Z,24.65
2017-03-01T00:41:21.491Z,24.61
2017-03-01T00:42:36.177Z,24.61
2017-03-01T00:43:50.159Z,24.42
2017-03-01T00:45:05.163Z,24.57
2017-03-01T00:46:20.430Z,24.55
2017-03-01T00:47:35.592Z,24.55
2017-03-01T00:48:50.023Z,24.55
2017-03-01T00:50:03.819Z,24.5
2017-03-01T00:51:17.161Z,24.64
2017-03-01T00:52:32.061Z,24.61
2017-03-01T00:53:47.315Z,24.57
2017-03-01T00:55:01.089Z,24.55
2017-03-01T00:56:15.549Z,24.49
2017-03-01T00:57:29.999Z,24.45
2017-03-01T00:58:44.627Z,24.43
2017-03-01T00:59:59.461Z,24.32
2017-03-01T01:01:13.924Z,24.31
2017-03-01T01:02:28.339Z,24.35
2017-03-01T01:03:42.790Z,24.34
2017-03-01T01:04:57.849Z,24.3
2017-03-01T01:06:12.428Z,24.3
2017-03-01T01:07:27.817Z,24.22
2017-03-01T01:08:43.059Z,24.24
2017-03-01T01:09:58.139Z,24.16
2017-03-01T01:11:13.126Z,24.2
2017-03-01T01:12:28.372Z,24.22
2017-03-01T01:13:42.819Z,24.18
2017-03-01T01:14:57.245Z,24.09
2017-03-01T01:16:11.595Z,24.12
2017-03-01T01:17:26.065Z,24.12
2017-03-01T01:18:40.580Z,24.13
2017-03-01T01:19:55.153Z,24.13
2017-03-01T01:21:09.565Z,24.12
2017-03-01T01:22:24.036Z,24.09
2017-03-01T01:23:38.187Z,24.08
2017-03-01T01:24:52.653Z,24.2
2017-03-01T01:26:07.056Z,24.13
2017-03-01T01:27:21.688Z,24.12
2017-03-01T01:28:36.592Z,24.12
2017-03-01T01:29:51.047Z,24.15
2017-03-01T01:31:05.909Z,24.1
2017-03-01T01:32:20.945Z,24.13
2017-03-01T01:33:36.217Z,24.18
2017-03-01T01:34:51.243Z,24.03
2017-03-01T01:36:06.440Z,24.08
2017-03-01T01:37:21.703Z,23.91
2017-03-01T01:38:36.408Z,23.94
2017-03-01T01:39:50.865Z,23.93
2017-03-01T01:41:04.660Z,24.03
2017-03-01T01:42:19.102Z,24.05
2017-03-01T01:43:32.867Z,24.02
2017-03-01T01:44:47.316Z,23.95
2017-03-01T01:46:01.753Z,23.76
2017-03-01T01:47:16.186Z,23.91
2017-03-01T01:48:30.586Z,23.78
2017-03-01T01:49:45.215Z,23.84
2017-03-01T01:51:00.022Z,23.7
2017-03-01T01:52:14.443Z,23.69
2017-03-01T01:53:28.904Z,23.69
2017-03-01T01:54:43.346Z,23.65
2017-03-01T01:55:58.029Z,23.63
2017-03-01T01:57:13.331Z,23.73
2017-03-01T01:58:29.109Z,23.69
2017-03-01T01:59:43.951Z,23.8
2017-03-01T02:01:00.085Z,23.91
2017-03-01T02:02:14.905Z,23.9
2017-03-01T02:03:30.399Z,23.93
2017-03-01T02:04:45.205Z,23.98
2017-03-01T02:06:00.056Z,23.95
2017-03-01T02:07:15.164Z,24.05
2017-03-01T02:08:30.176Z,24.02
2017-03-01T02:09:45.133Z,24.12
2017-03-01T02:11:00.624Z,24.21
2017-03-01T02:12:15.061Z,24.13
2017-03-01T02:13:29.759Z,24.15
2017-03-01T02:14:45.439Z,24.02
2017-03-01T02:16:00.124Z,23.93
2017-03-01T02:17:15.878Z,23.97
2017-03-01T02:18:31.631Z,23.94
2017-03-01T02:19:46.572Z,23.94
2017-03-01T02:21:01.998Z,24.05
2017-03-01T02:22:17.652Z,24.12
2017-03-01T02:23:32.110Z,24.18
2017-03-01T02:24:47.001Z,24.27
2017-03-01T02:26:01.400Z,24.21
2017-03-01T02:27:16.033Z,24.2
2017-03-01T02:28:30.940Z,24.05
2017-03-01T02:29:46.360Z,24.15
2017-03-01T02:31:01.878Z,24.1
2017-03-01T02:32:16.677Z,24.12
2017-03-01T02:33:32.348Z,24.15
2017-03-01T02:34:47.934Z,24.05
2017-03-01T02:36:03.176Z,24.12
2017-03-01T02:37:18.786Z,24.09
2017-03-01T02:38:33.666Z,24.16
2017-03-01T02:39:48.101Z,24.08
2017-03-01T02:41:02.560Z,24.09
2017-03-01T02:42:16.381Z,24.12
2017-03-01T02:43:30.808Z,24.13
2017-03-01T02:44:45.211Z,24.1
2017-03-01T02:45:59.830Z,24.12
2017-03-01T02:47:14.885Z,24.16
2017-03-01T02:48:29.925Z,24.09
2017-03-01T02:49:43.891Z,24.09
2017-03-01T02:50:58.309Z,24.15
2017-03-01T02:52:12.761Z,24
2017-03-01T02:53:27.428Z,24.09
2017-03-01T02:54:42.301Z,24.06
2017-03-01T02:55:56.704Z,24.03
2017-03-01T02:57:11.303Z,23.97
2017-03-01T02:58:25.708Z,23.93
2017-03-01T02:59:40.136Z,23.95
2017-03-01T03:00:54.587Z,23.97
2017-03-01T03:02:08.975Z,23.91
2017-03-01T03:03:23.353Z,23.9
2017-03-01T03:04:37.775Z,23.95
2017-03-01T03:05:52.170Z,23.93
2017-03-01T03:07:06.593Z,23.88
2017-03-01T03:08:20.990Z,23.9
2017-03-01T03:09:35.385Z,23.9
2017-03-01T03:10:49.782Z,23.94
2017-03-01T03:12:04.247Z,23.95
2017-03-01T03:13:18.092Z,23.94
2017-03-01T03:14:31.916Z,24
2017-03-01T03:15:46.348Z,24.06
2017-03-01T03:17:00.783Z,24.03
2017-03-01T03:18:15.220Z,24
2017-03-01T03:19:29.629Z,24.02
2017-03-01T03:20:44.100Z,23.95
2017-03-01T03:21:58.509Z,23.93
2017-03-01T03:23:12.882Z,23.91
2017-03-01T03:24:26.663Z,23.97
2017-03-01T03:25:40.457Z,23.91
2017-03-01T03:26:54.882Z,23.93
2017-03-01T03:28:09.315Z,23.97
2017-03-01T03:29:23.755Z,23.97
2017-03-01T03:30:38.169Z,23.95
2017-03-01T03:31:52.600Z,23.88
2017-03-01T03:33:07.052Z,23.87
2017-03-01T03:34:21.467Z,23.75
2017-03-01T03:35:35.910Z,23.73
2017-03-01T03:36:49.759Z,23.73
2017-03-01T03:38:04.203Z,23.58
2017-03-01T03:39:18.625Z,23.58
2017-03-01T03:40:32.390Z,23.66
2017-03-01T03:41:46.807Z,23.57
2017-03-01T03:43:01.244Z,23.51
2017-03-01T03:44:15.678Z,23.57
2017-03-01T03:45:29.517Z,23.54
2017-03-01T03:46:44.021Z,23.54
2017-03-01T03:47:58.431Z,23.4
2017-03-01T03:49:12.853Z,23.48
2017-03-01T03:50:26.791Z,23.4
2017-03-01T03:51:41.218Z,23.46
2017-03-01T03:52:55.064Z,23.42
2017-03-01T03:54:09.448Z,23.48
2017-03-01T03:55:23.216Z,23.42
2017-03-01T03:56:36.979Z,23.43
2017-03-01T03:57:51.424Z,23.43
2017-03-01T03:59:05.845Z,23.43
2017-03-01T04:00:20.285Z,23.42
2017-03-01T04:01:34.058Z,23.47
2017-03-01T04:02:48.452Z,23.42
2017-03-01T04:04:02.879Z,23.5
2017-03-01T04:05:16.656Z,23.55
2017-03-01T04:06:31.117Z,23.53
2017-03-01T04:07:45.532Z,23.48
2017-03-01T04:08:59.324Z,23.53
2017-03-01T04:10:13.716Z,23.51
2017-03-01T04:11:28.130Z,23.53
2017-03-01T04:12:41.901Z,23.54
2017-03-01T04:13:55.660Z,23.47
2017-03-01T04:15:10.068Z,23.43
2017-03-01T04:16:24.464Z,23.42
2017-03-01T04:17:38.882Z,23.38
2017-03-01T04:18:53.278Z,23.48
2017-03-01T04:20:07.066Z,23.4
2017-03-01T04:21:21.490Z,23.43
2017-03-01T04:22:35.902Z,23.48
2017-03-01T04:23:50.329Z,23.63
2017-03-01T04:25:04.752Z,23.68
2017-03-01T04:26:18.497Z,23.75
2017-03-01T04:27:32.930Z,23.7
2017-03-01T04:28:53.693Z,23.7
2017-03-01T04:30:20.382Z,23.69
2017-03-01T04:31:34.117Z,23.72
2017-03-01T04:32:47.871Z,23.7
2017-03-01T04:34:02.294Z,23.73
2017-03-01T04:35:22.358Z,23.76
2017-03-01T04:36:36.781Z,23.75
2017-03-01T04:37:51.209Z,23.68
2017-03-01T04:39:05.630Z,23.72
2017-03-01T04:40:20.065Z,23.61
2017-03-01T04:41:33.818Z,23.65
2017-03-01T04:42:48.271Z,23.6
2017-03-01T04:44:02.716Z,23.55
2017-03-01T04:45:17.113Z,23.54
2017-03-01T04:46:31.513Z,23.58
2017-03-01T04:47:45.323Z,23.61
2017-03-01T04:48:59.727Z,23.58
2017-03-01T04:50:14.174Z,23.53
2017-03-01T04:51:28.577Z,23.54
2017-03-01T04:52:42.517Z,23.5
2017-03-01T04:53:56.441Z,23.54
2017-03-01T04:55:10.845Z,23.5
2017-03-01T04:56:25.313Z,23.47
2017-03-01T04:57:39.754Z,23.42
2017-03-01T04:58:53.517Z,23.39
2017-03-01T05:00:07.986Z,23.35
2017-03-01T05:01:22.394Z,23.32
2017-03-01T05:02:36.808Z,23.27
2017-03-01T05:03:51.046Z,23.17
2017-03-01T05:05:04.850Z,23.23
2017-03-01T05:06:19.312Z,23.1
2017-03-01T05:07:33.731Z,23.12
2017-03-01T05:08:48.165Z,23.09
2017-03-01T05:10:01.947Z,23.05
2017-03-01T05:11:15.705Z,23.05
2017-03-01T05:12:30.128Z,22.98
2017-03-01T05:13:44.524Z,22.94
2017-03-01T05:14:58.931Z,23
2017-03-01T05:16:13.300Z,22.94
2017-03-01T05:17:27.677Z,23.05
2017-03-01T05:18:41.481Z,22.95
2017-03-01T05:19:55.892Z,22.91
2017-03-01T05:21:10.338Z,22.9
2017-03-01T05:22:24.156Z,22.86
2017-03-01T05:23:37.915Z,22.83
2017-03-01T05:24:51.706Z,22.9
2017-03-01T05:26:06.109Z,22.85
2017-03-01T05:27:20.565Z,22.83
2017-03-01T05:28:35.028Z,22.77
2017-03-01T05:29:49.452Z,22.85
2017-03-01T05:31:03.857Z,22.7
2017-03-01T05:32:18.265Z,22.75
2017-03-01T05:33:32.660Z,22.61
2017-03-01T05:34:46.419Z,22.62
2017-03-01T05:36:00.878Z,22.62
2017-03-01T05:37:15.271Z,22.62
2017-03-01T05:38:29.661Z,22.49
2017-03-01T05:39:44.060Z,22.55
2017-03-01T05:40:58.486Z,22.51
2017-03-01T05:42:12.903Z,22.57
2017-03-01T05:43:26.045Z,22.52
2017-03-01T05:44:40.470Z,22.75
2017-03-01T05:45:54.880Z,22.72
2017-03-01T05:47:09.325Z,22.72
2017-03-01T05:48:23.752Z,22.64
2017-03-01T05:49:38.136Z,22.67
2017-03-01T05:50:52.564Z,22.7
2017-03-01T05:52:06.983Z,22.73
2017-03-01T05:53:21.389Z,22.79
2017-03-01T05:54:35.833Z,22.67
2017-03-01T05:55:50.252Z,22.77
2017-03-01T05:57:04.671Z,22.76
2017-03-01T05:58:19.085Z,22.77
2017-03-01T05:59:33.506Z,22.79
2017-03-01T06:00:47.918Z,22.73
2017-03-01T06:02:02.348Z,22.8
2017-03-01T06:03:16.818Z,22.68
2017-03-01T06:04:31.243Z,22.67
2017-03-01T06:05:45.705Z,22.62
2017-03-01T06:07:00.182Z,22.49
2017-03-01T06:08:14.612Z,22.55
2017-03-01T06:09:29.051Z,22.52
2017-03-01T06:10:43.458Z,22.58
2017-03-01T06:11:57.246Z,22.67
2017-03-01T06:13:11.707Z,22.55
2017-03-01T06:14:25.489Z,22.61
2017-03-01T06:15:38.626Z,22.6
2017-03-01T06:16:53.107Z,22.72
2017-03-01T06:18:07.554Z,22.67
2017-03-01T06:19:21.331Z,22.7
2017-03-01T06:20:35.735Z,22.68
2017-03-01T06:21:50.162Z,22.75
2017-03-01T06:23:04.544Z,22.7
2017-03-01T06:24:18.998Z,22.68
2017-03-01T06:25:32.789Z,22.7
2017-03-01T06:26:47.071Z,22.73
2017-03-01T06:28:00.858Z,22.64
2017-03-01T06:29:15.288Z,22.62
2017-03-01T06:30:29.049Z,22.52
2017-03-01T06:31:43.460Z,22.55
2017-03-01T06:32:57.871Z,22.52
2017-03-01T06:34:11.676Z,22.51
2017-03-01T06:35:26.150Z,22.46
2017-03-01T06:36:40.537Z,22.49
2017-03-01T06:37:54.320Z,22.39
2017-03-01T06:39:08.709Z,22.36
2017-03-01T06:40:23.133Z,22.31
2017-03-01T06:41:37.567Z,22.36
2017-03-01T06:42:51.963Z,22.37
2017-03-01T06:44:06.368Z,22.3
2017-03-01T06:45:20.801Z,22.3
2017-03-01T06:46:33.956Z,22.31
2017-03-01T06:47:47.725Z,22.33
2017-03-01T06:49:02.151Z,22.28
2017-03-01T06:50:15.974Z,22.35
2017-03-01T06:51:29.742Z,22.33
2017-03-01T06:52:44.148Z,22.37
2017-03-01T06:53:58.566Z,22.43
2017-03-01T06:55:13.037Z,22.45
2017-03-01T06:56:27.445Z,22.52
2017-03-01T06:57:41.884Z,22.43
2017-03-01T06:58:55.650Z,22.49
2017-03-01T07:00:10.061Z,22.57
2017-03-01T07:01:24.514Z,22.54
2017-03-01T07:02:38.308Z,22.49
2017-03-01T07:03:52.723Z,22.45
2017-03-01T07:05:07.128Z,22.49
2017-03-01T07:06:21.527Z,22.52
2017-03-01T07:07:35.961Z,22.43
2017-03-01T07:08:50.400Z,22.42
2017-03-01T07:10:04.824Z,22.49
2017-03-01T07:11:19.268Z,22.46
2017-03-01T07:12:33.067Z,22.39
2017-03-01T07:13:47.506Z,22.4
2017-03-01T07:15:01.277Z,22.42
2017-03-01T07:16:15.679Z,22.43
2017-03-01T07:17:30.093Z,22.52
2017-03-01T07:18:43.911Z,22.51
2017-03-01T07:19:58.351Z,22.52
2017-03-01T07:21:12.827Z,22.6
2017-03-01T07:22:27.262Z,22.49
2017-03-01T07:23:41.673Z,22.58
2017-03-01T07:24:56.104Z,22.49
2017-03-01T07:26:10.540Z,22.46
2017-03-01T07:27:24.985Z,22.45
2017-03-01T07:28:38.770Z,22.36
2017-03-01T07:29:53.167Z,22.35
2017-03-01T07:31:07.562Z,22.3
2017-03-01T07:32:21.958Z,22.33
2017-03-01T07:33:35.087Z,22.25
2017-03-01T07:34:49.559Z,22.25
2017-03-01T07:36:03.988Z,22.09
2017-03-01T07:37:18.378Z,22.15
2017-03-01T07:38:32.810Z,22.09
2017-03-01T07:39:47.269Z,22.2
2017-03-01T07:41:01.032Z,22.21
2017-03-01T07:42:15.421Z,22.2
2017-03-01T07:43:29.193Z,22.1
2017-03-01T07:44:42.991Z,22.21
2017-03-01T07:45:57.370Z,22.22
2017-03-01T07:47:11.777Z,22.24
2017-03-01T07:48:26.191Z,22.3
2017-03-01T07:49:39.956Z,22.35
2017-03-01T07:50:54.364Z,22.36
2017-03-01T07:52:08.171Z,22.35
2017-03-01T07:53:22.587Z,22.45
2017-03-01T07:54:37.016Z,22.42
2017-03-01T07:55:51.465Z,22.3
2017-03-01T07:57:05.256Z,22.33
2017-03-01T07:58:19.644Z,22.28
2017-03-01T07:59:33.424Z,22.28
2017-03-01T08:00:47.882Z,22.25
2017-03-01T08:02:01.706Z,22.25
2017-03-01T08:03:15.459Z,22.27
2017-03-01T08:04:29.255Z,22.33
2017-03-01T08:05:43.039Z,22.2
2017-03-01T08:06:57.470Z,22.24
2017-03-01T08:08:11.897Z,22.21
2017-03-01T08:09:26.293Z,22.17
2017-03-01T08:10:40.028Z,22.1
2017-03-01T08:11:54.498Z,22
2017-03-01T08:13:08.914Z,21.98
2017-03-01T08:14:22.698Z,21.96
2017-03-01T08:15:35.827Z,21.86
2017-03-01T08:16:49.603Z,21.83
2017-03-01T08:18:03.340Z,21.94
2017-03-01T08:19:17.746Z,21.92
2017-03-01T08:20:31.524Z,21.88
2017-03-01T08:21:45.325Z,21.88
2017-03-01T08:22:59.701Z,21.75
2017-03-01T08:24:13.533Z,21.72
2017-03-01T08:25:27.310Z,21.72
2017-03-01T08:26:41.720Z,21.8
2017-03-01T08:27:56.109Z,21.72
2017-03-01T08:29:10.525Z,21.82
2017-03-01T08:30:24.943Z,21.69
2017-03-01T08:31:39.362Z,21.79
2017-03-01T08:32:53.785Z,21.75
2017-03-01T08:34:07.528Z,21.68
2017-03-01T08:35:21.948Z,21.77
2017-03-01T08:36:36.379Z,21.74
2017-03-01T08:37:50.797Z,21.77
2017-03-01T08:39:05.235Z,21.77
2017-03-01T08:40:19.703Z,21.72
2017-03-01T08:41:34.149Z,21.74
2017-03-01T08:42:48.542Z,21.69
2017-03-01T08:44:02.965Z,21.69
2017-03-01T08:45:17.359Z,21.65
2017-03-01T08:46:31.769Z,21.62
2017-03-01T08:47:46.211Z,21.64
2017-03-01T08:49:00.639Z,21.52
2017-03-01T08:50:15.104Z,21.53
2017-03-01T08:51:29.518Z,21.43
2017-03-01T08:52:43.935Z,21.46
2017-03-01T08:53:57.065Z,21.37
2017-03-01T08:55:10.904Z,21.46
2017-03-01T08:56:25.316Z,21.49
2017-03-01T08:57:39.065Z,21.42
2017-03-01T08:58:53.467Z,21.34
2017-03-01T09:00:07.870Z,21.37
2017-03-01T09:01:21.665Z,21.38
2017-03-01T09:02:35.496Z,21.34
2017-03-01T09:03:49.908Z,21.34
2017-03-01T09:05:04.344Z,21.49
2017-03-01T09:06:18.750Z,21.35
2017-03-01T09:07:32.518Z,21.46
2017-03-01T09:08:46.916Z,21.49
2017-03-01T09:10:01.427Z,21.46
2017-03-01T09:11:15.826Z,21.46
2017-03-01T09:12:30.245Z,21.47
2017-03-01T09:13:44.037Z,21.47
2017-03-01T09:14:58.452Z,21.49
2017-03-01T09:16:11.593Z,21.47
2017-03-01T09:17:25.362Z,21.47
2017-03-01T09:18:39.747Z,21.5
2017-03-01T09:19:54.120Z,21.54
2017-03-01T09:21:08.527Z,21.61
2017-03-01T09:22:22.950Z,21.77
2017-03-01T09:23:37.374Z,21.86
2017-03-01T09:24:51.791Z,21.96
2017-03-01T09:26:06.245Z,22.14
2017-03-01T09:27:20.641Z,22.28
2017-03-01T09:28:34.391Z,22.45
2017-03-01T09:29:48.791Z,22.55
2017-03-01T09:31:03.193Z,22.68
2017-03-01T09:32:17.603Z,22.86
2017-03-01T09:33:31.989Z,22.98
2017-03-01T09:34:46.410Z,23.04
2017-03-01T09:36:00.166Z,23.01
2017-03-01T09:37:13.904Z,23.23
2017-03-01T09:38:28.337Z,23.38
2017-03-01T09:39:42.759Z,23.5
2017-03-01T09:40:56.527Z,23.65
2017-03-01T09:42:09.666Z,23.91
2017-03-01T09:43:24.090Z,24.22
2017-03-01T09:44:37.906Z,24.22
2017-03-01T09:45:51.681Z,24.43
2017-03-01T09:47:04.786Z,24.67
2017-03-01T09:48:19.198Z,24.55
2017-03-01T09:49:32.954Z,24.58
2017-03-01T09:50:46.718Z,24.57
2017-03-01T09:52:01.199Z,24.55
2017-03-01T09:53:15.010Z,24.57
2017-03-01T09:54:29.410Z,24.34
2017-03-01T09:55:42.587Z,24.5
2017-03-01T09:56:56.339Z,24.6
2017-03-01T09:58:10.104Z,24.57
2017-03-01T09:59:24.499Z,24.47
2017-03-01T10:00:38.884Z,24.53
2017-03-01T10:01:53.323Z,24.4
2017-03-01T10:03:07.752Z,24.45
2017-03-01T10:04:22.167Z,24.39
2017-03-01T10:05:36.602Z,24.34
2017-03-01T10:06:50.366Z,24.35
2017-03-01T10:08:04.163Z,24.35
2017-03-01T10:09:18.600Z,24.49
2017-03-01T10:10:33.050Z,24.64
2017-03-01T10:11:46.843Z,24.57
2017-03-01T10:13:00.597Z,24.78
2017-03-01T10:14:15.007Z,24.96
2017-03-01T10:15:29.409Z,25.02
2017-03-01T10:16:43.813Z,24.61
2017-03-01T10:17:58.234Z,24.62
2017-03-01T10:19:12.015Z,24.65
2017-03-01T10:20:26.444Z,24.95
2017-03-01T10:21:40.854Z,24.69
2017-03-01T10:22:55.264Z,24.76
2017-03-01T10:24:09.690Z,24.71
2017-03-01T10:25:23.457Z,24.53
2017-03-01T10:26:37.887Z,24.67
2017-03-01T10:27:51.712Z,24.69
2017-03-01T10:29:05.508Z,24.81
2017-03-01T10:30:19.916Z,24.93
2017-03-01T10:31:33.020Z,25.09
2017-03-01T10:32:46.131Z,25.05
2017-03-01T10:34:00.633Z,24.9
2017-03-01T10:35:15.021Z,24.87
2017-03-01T10:36:29.447Z,24.84
2017-03-01T10:37:43.209Z,24.78
2017-03-01T10:38:56.969Z,24.95
2017-03-01T10:40:10.736Z,24.91
2017-03-01T10:41:25.183Z,24.98
2017-03-01T10:42:39.022Z,24.98
2017-03-01T10:43:53.412Z,25.33
2017-03-01T10:45:07.212Z,25.35
2017-03-01T10:46:21.713Z,25.4
2017-03-01T10:47:36.182Z,25.7
2017-03-01T10:48:50.635Z,25.85
2017-03-01T10:50:03.762Z,25.8
2017-03-01T10:51:17.570Z,25.72
2017-03-01T10:52:31.989Z,25.85
2017-03-01T10:53:46.383Z,25.87
2017-03-01T10:55:00.775Z,25.58
2017-03-01T10:56:15.182Z,25.58
2017-03-01T10:57:29.611Z,25.35
2017-03-01T10:58:44.030Z,25.46
2017-03-01T10:59:58.470Z,25.33
2017-03-01T11:01:12.238Z,25.18
2017-03-01T11:02:26.719Z,25.05
2017-03-01T11:03:41.221Z,24.99
2017-03-01T11:04:55.684Z,25.09
2017-03-01T11:06:10.094Z,25.18
2017-03-01T11:07:23.920Z,25.38
2017-03-01T11:08:38.341Z,25.35
2017-03-01T11:09:52.737Z,25.35
2017-03-01T11:11:06.540Z,25.33
2017-03-01T11:12:20.929Z,25.05
2017-03-01T11:13:35.311Z,25.15
2017-03-01T11:14:49.756Z,25.17
2017-03-01T11:16:04.188Z,25.45
2017-03-01T11:17:18.594Z,25.65
2017-03-01T11:18:33.024Z,25.51
2017-03-01T11:19:47.439Z,25.6
2017-03-01T11:21:01.840Z,25.58
2017-03-01T11:22:15.591Z,25.7
2017-03-01T11:23:29.375Z,25.58
2017-03-01T11:24:43.790Z,25.7
2017-03-01T11:25:58.197Z,25.83
2017-03-01T11:27:13.058Z,25.69
2017-03-01T11:28:27.451Z,25.83
2017-03-01T11:29:41.867Z,26.23
2017-03-01T11:30:56.305Z,26.39
2017-03-01T11:32:10.083Z,26.15
2017-03-01T11:33:24.512Z,26.2
2017-03-01T11:34:38.961Z,26.4
2017-03-01T11:35:52.082Z,26.65
2017-03-01T11:37:05.831Z,26.65
2017-03-01T11:38:20.243Z,26.91
2017-03-01T11:39:34.026Z,26.84
2017-03-01T11:40:48.428Z,26.43
2017-03-01T11:42:02.881Z,26.52
2017-03-01T11:43:17.337Z,26.62
2017-03-01T11:44:31.100Z,26.85
2017-03-01T11:45:44.900Z,26.84
2017-03-01T11:46:59.323Z,27.06
2017-03-01T11:48:13.083Z,27.29
2017-03-01T11:49:26.277Z,27.32
2017-03-01T11:50:40.705Z,27.49
2017-03-01T11:51:54.520Z,27.66
2017-03-01T11:53:08.937Z,27.07
2017-03-01T11:54:23.349Z,27.04
2017-03-01T11:55:37.112Z,26.87
2017-03-01T11:56:50.892Z,26.94
2017-03-01T11:58:05.288Z,26.57
2017-03-01T11:59:19.745Z,26.39
2017-03-01T12:00:33.577Z,26.8
2017-03-01T12:01:48.023Z,27.03
2017-03-01T12:03:02.470Z,26.85
2017-03-01T12:04:16.924Z,26.69
2017-03-01T12:05:30.086Z,26.81
2017-03-01T12:06:43.876Z,27.02
2017-03-01T12:07:58.308Z,27.14
2017-03-01T12:09:12.777Z,26.87
2017-03-01T12:10:26.604Z,26.77
2017-03-01T12:11:40.408Z,26.69
2017-03-01T12:12:54.227Z,26.99
2017-03-01T12:14:08.174Z,27.03
2017-03-01T12:15:22.712Z,27.34
2017-03-01T12:16:37.223Z,27.21
2017-03-01T12:17:51.718Z,27.07
2017-03-01T12:19:04.902Z,27.29
2017-03-01T12:20:18.712Z,27.32
2017-03-01T12:21:33.149Z,26.89
2017-03-01T12:22:47.617Z,26.91
2017-03-01T12:24:02.082Z,27.02
2017-03-01T12:25:15.895Z,26.99
2017-03-01T12:26:30.351Z,26.95
2017-03-01T12:27:44.813Z,26.92
2017-03-01T12:28:58.662Z,26.67
2017-03-01T12:30:13.131Z,26.66
2017-03-01T12:31:26.936Z,27.04
2017-03-01T12:32:41.418Z,27.04
2017-03-01T12:33:55.227Z,27.19
2017-03-01T12:35:09.686Z,27.5
2017-03-01T12:36:24.148Z,27.14
2017-03-01T12:37:37.995Z,27.36
2017-03-01T12:38:52.458Z,27.31
2017-03-01T12:40:05.603Z,27.72
2017-03-01T12:41:20.093Z,27.62
2017-03-01T12:42:34.579Z,27.4
2017-03-01T12:44:07.033Z,27.47
2017-03-01T12:45:21.504Z,27.87
2017-03-01T12:46:35.960Z,27.77
2017-03-01T12:47:49.778Z,27.63
2017-03-01T12:49:04.227Z,27.72
2017-03-01T12:50:18.667Z,28.24
2017-03-01T12:51:33.098Z,28.34
2017-03-01T12:52:46.917Z,28.24
2017-03-01T12:54:01.381Z,28.37
2017-03-01T12:55:15.168Z,28.17
2017-03-01T12:56:29.000Z,27.96
2017-03-01T12:57:43.493Z,27.77
2017-03-01T12:58:57.962Z,27.49
2017-03-01T13:00:11.787Z,27.81
2017-03-01T13:01:25.570Z,28.03
2017-03-01T13:02:39.992Z,27.94
2017-03-01T13:03:54.409Z,27.66
2017-03-01T13:05:08.853Z,27.74
2017-03-01T13:06:22.598Z,27.92
2017-03-01T13:07:37.057Z,28.15
2017-03-01T13:08:51.473Z,27.97
2017-03-01T13:10:04.641Z,28.31
2017-03-01T13:11:19.123Z,28.54
2017-03-01T13:12:32.236Z,28.29
2017-03-01T13:13:45.402Z,28.17
2017-03-01T13:14:59.857Z,28.11
2017-03-01T13:16:13.627Z,27.84
2017-03-01T13:17:27.414Z,27.85
2017-03-01T13:18:41.842Z,28.44
2017-03-01T13:19:55.677Z,28.52
2017-03-01T13:21:08.195Z,28.49
2017-03-01T13:22:22.634Z,28.58
2017-03-01T13:23:35.808Z,28.67
2017-03-01T13:24:48.965Z,28.95
2017-03-01T13:26:03.426Z,29.34
2017-03-01T13:27:17.911Z,29.68
2017-03-01T13:28:31.705Z,30.19
2017-03-01T13:29:46.141Z,30.23
2017-03-01T13:31:00.584Z,29.74
2017-03-01T13:32:14.355Z,29.73
2017-03-01T13:33:28.784Z,30.26
2017-03-01T13:34:43.223Z,29.46
2017-03-01T13:35:57.657Z,28.55
2017-03-01T13:37:12.069Z,28.17
2017-03-01T13:38:26.515Z,28.52
2017-03-01T13:39:40.951Z,28.88
2017-03-01T13:40:54.752Z,29.09
2017-03-01T13:42:08.509Z,28.98
2017-03-01T13:43:22.986Z,28.86
2017-03-01T13:44:37.436Z,29.34
2017-03-01T13:45:49.937Z,29.43
2017-03-01T13:47:04.367Z,29.09
2017-03-01T13:48:18.797Z,29.11
2017-03-01T13:49:32.573Z,28.77
2017-03-01T13:50:47.048Z,29.16
2017-03-01T13:52:01.512Z,29.58
2017-03-01T13:53:14.621Z,29.55
2017-03-01T13:54:28.378Z,29.16
2017-03-01T13:55:42.781Z,28.81
2017-03-01T13:56:57.217Z,28.67
2017-03-01T13:58:10.983Z,29.05
2017-03-01T13:59:25.438Z,28.96
2017-03-01T14:00:39.241Z,28.81
2017-03-01T14:01:53.677Z,28.46
2017-03-01T14:03:08.128Z,28.34
2017-03-01T14:04:22.570Z,28.04
2017-03-01T14:05:35.706Z,27.87
2017-03-01T14:06:49.502Z,28.06
2017-03-01T14:08:03.922Z,28.14
2017-03-01T14:09:17.718Z,28.43
2017-03-01T14:10:32.126Z,28.44
2017-03-01T14:11:45.246Z,28.24
2017-03-01T14:12:59.056Z,28.18
2017-03-01T14:14:12.890Z,28.15
2017-03-01T14:15:26.656Z,28.34
2017-03-01T14:16:40.415Z,28.25
2017-03-01T14:17:54.214Z,28.02
2017-03-01T14:19:07.360Z,28.49
2017-03-01T14:20:19.864Z,28.98
2017-03-01T14:21:33.698Z,29.27
2017-03-01T14:22:48.131Z,29.23
2017-03-01T14:24:02.561Z,28.77
2017-03-01T14:25:15.756Z,28.7
2017-03-01T14:26:30.197Z,28.49
2017-03-01T14:27:44.608Z,28.22
2017-03-01T14:28:59.020Z,28.24
2017-03-01T14:30:13.456Z,28.29
2017-03-01T14:31:27.243Z,28.24
2017-03-01T14:32:41.667Z,28.24
2017-03-01T14:33:55.463Z,28.46
2017-03-01T14:35:09.935Z,28.36
2017-03-01T14:36:23.707Z,28.21
2017-03-01T14:37:38.156Z,28.37
2017-03-01T14:38:51.947Z,28.44
2017-03-01T14:40:05.755Z,28.67
2017-03-01T14:41:20.190Z,28.89
2017-03-01T14:42:34.575Z,29.26
2017-03-01T14:43:48.350Z,29.34
2017-03-01T14:45:02.132Z,29.12
2017-03-01T14:46:16.657Z,28.77
2017-03-01T14:47:29.190Z,28.3
2017-03-01T14:48:42.957Z,27.87
2017-03-01T14:49:57.401Z,28.25
2017-03-01T14:51:11.858Z,28.34
2017-03-01T14:52:25.642Z,28.25
2017-03-01T14:53:39.384Z,28.3
2017-03-01T14:54:53.822Z,28.22
2017-03-01T14:56:08.255Z,28.09
2017-03-01T14:57:22.067Z,28.4
2017-03-01T14:58:35.867Z,28.73
2017-03-01T14:59:49.663Z,28.77
2017-03-01T15:01:04.073Z,28.85
2017-03-01T15:02:18.520Z,29.16
2017-03-01T15:03:32.939Z,29.26
2017-03-01T15:04:46.730Z,28.93
2017-03-01T15:06:00.524Z,28.77
2017-03-01T15:07:14.270Z,28.88
2017-03-01T15:08:28.672Z,29.24
2017-03-01T15:09:41.827Z,29.52
2017-03-01T15:10:56.279Z,29.64
2017-03-01T15:12:10.720Z,29.67
2017-03-01T15:13:25.126Z,29.49
2017-03-01T15:14:39.536Z,29.37
2017-03-01T15:15:53.960Z,29.64
2017-03-01T15:17:08.390Z,30.1
2017-03-01T15:18:22.149Z,29.49
2017-03-01T15:19:35.908Z,29.53
2017-03-01T15:20:49.708Z,30.02
2017-03-01T15:22:02.866Z,30.2
2017-03-01T15:23:16.661Z,30.79
2017-03-01T15:24:31.121Z,30.83
2017-03-01T15:25:45.558Z,30.47
2017-03-01T15:26:59.345Z,29.97
2017-03-01T15:28:12.529Z,29.83
2017-03-01T15:29:25.719Z,30.26
2017-03-01T15:30:38.868Z,29.57
2017-03-01T15:31:52.785Z,29.02
2017-03-01T15:33:06.547Z,28.7
2017-03-01T15:34:20.380Z,28.95
2017-03-01T15:35:32.901Z,29.21
2017-03-01T15:36:46.679Z,29.53
2017-03-01T15:38:01.154Z,29.95
2017-03-01T15:39:15.572Z,30.55
2017-03-01T15:40:30.000Z,30.38
2017-03-01T15:41:43.786Z,29.9
2017-03-01T15:42:58.268Z,29.31
2017-03-01T15:44:12.671Z,29.45
2017-03-01T15:45:27.130Z,29.73
2017-03-01T15:46:41.566Z,29.67
2017-03-01T15:47:55.344Z,29.52
2017-03-01T15:49:09.770Z,29.85
2017-03-01T15:50:23.607Z,30.37
2017-03-01T15:51:37.493Z,30.69
2017-03-01T15:52:51.930Z,30.79
2017-03-01T15:54:06.367Z,31.06
2017-03-01T15:55:20.802Z,31.78
2017-03-01T15:56:34.566Z,30.83
2017-03-01T15:57:48.997Z,30.47
2017-03-01T15:59:02.794Z,30.26
2017-03-01T16:00:17.187Z,29.85